createdAt,value
2018-09-25T00:01:33.316Z,99.90
2018-09-25T00:04:07.195Z,99.90
2018-09-25T00:06:41.009Z,99.90
2018-09-25T00:09:15.186Z,99.90
2018-09-25T00:11:49.249Z,99.90
2018-09-25T00:14:23.310Z,99.90
2018-09-25T00:16:57.254Z,99.90
2018-09-25T00:19:31.080Z,99.90
2018-09-25T00:22:04.890Z,99.90
2018-09-25T00:24:38.787Z,99.90
2018-09-25T00:27:12.680Z,99.90
2018-09-25T00:29:46.596Z,99.90
2018-09-25T00:32:20.568Z,99.90
2018-09-25T00:34:54.514Z,99.90
2018-09-25T00:37:29.192Z,99.90
2018-09-25T00:40:03.182Z,99.90
2018-09-25T00:42:37.014Z,99.90
2018-09-25T00:45:10.959Z,99.90
2018-09-25T00:47:45.461Z,99.90
2018-09-25T00:50:19.162Z,99.90
2018-09-25T00:52:53.471Z,99.90
2018-09-25T00:55:27.321Z,99.90
2018-09-25T00:58:01.180Z,99.90
2018-09-25T01:00:35.024Z,99.90
2018-09-25T01:03:08.912Z,99.90
2018-09-25T01:05:42.807Z,99.90
2018-09-25T01:08:16.629Z,99.90
2018-09-25T01:10:50.390Z,99.90
2018-09-25T01:13:24.710Z,99.90
2018-09-25T01:15:58.753Z,99.90
2018-09-25T01:18:32.494Z,99.90
2018-09-25T01:21:06.485Z,99.90
2018-09-25T01:23:40.440Z,99.90
2018-09-25T01:26:14.512Z,99.90
2018-09-25T01:28:48.310Z,99.90
2018-09-25T01:31:22.230Z,99.90
2018-09-25T01:33:56.227Z,99.90
2018-09-25T01:36:30.171Z,99.90
2018-09-25T01:39:04.068Z,99.90
2018-09-25T01:41:37.768Z,99.90
2018-09-25T01:44:11.611Z,99.90
2018-09-25T01:46:45.461Z,99.90
2018-09-25T01:49:19.326Z,99.90
2018-09-25T01:51:53.097Z,99.90
2018-09-25T01:54:27.093Z,99.90
2018-09-25T01:57:00.994Z,99.90
2018-09-25T01:59:34.846Z,99.90
2018-09-25T02:02:08.653Z,99.90
2018-09-25T02:04:42.538Z,99.90
2018-09-25T02:07:16.486Z,99.90
2018-09-25T02:09:50.441Z,99.90
2018-09-25T02:12:24.534Z,99.90
2018-09-25T02:14:58.824Z,99.90
2018-09-25T02:17:32.734Z,99.90
2018-09-25T02:20:06.663Z,99.90
2018-09-25T02:22:40.570Z,99.90
2018-09-25T02:25:14.525Z,99.90
2018-09-25T02:27:48.456Z,99.90
2018-09-25T02:30:22.299Z,99.90
2018-09-25T02:32:56.093Z,99.90
2018-09-25T02:35:30.223Z,99.90
2018-09-25T02:38:04.107Z,99.90
2018-09-25T02:40:38.070Z,99.90
2018-09-25T02:43:12.233Z,99.90
2018-09-25T02:45:46.266Z,99.90
2018-09-25T02:48:20.017Z,99.90
2018-09-25T02:50:53.828Z,99.90
2018-09-25T02:53:27.806Z,99.90
2018-09-25T02:56:01.738Z,99.90
2018-09-25T02:58:35.781Z,99.90
2018-09-25T03:01:09.792Z,99.90
2018-09-25T03:03:43.689Z,99.90
2018-09-25T03:06:17.606Z,99.90
2018-09-25T03:08:51.551Z,99.90
2018-09-25T03:11:25.504Z,99.90
2018-09-25T03:13:59.406Z,99.90
2018-09-25T03:16:33.297Z,99.90
2018-09-25T03:19:07.154Z,99.90
2018-09-25T03:21:40.900Z,99.90
2018-09-25T03:24:14.868Z,99.90
2018-09-25T03:26:48.753Z,99.90
2018-09-25T03:29:22.639Z,99.90
2018-09-25T03:31:56.584Z,99.90
2018-09-25T03:34:30.494Z,99.90
2018-09-25T03:37:04.538Z,99.90
2018-09-25T03:39:38.339Z,99.90
2018-09-25T03:42:12.261Z,99.90
2018-09-25T03:44:46.102Z,99.90
2018-09-25T03:47:20.029Z,99.90
2018-09-25T03:49:53.953Z,99.90
2018-09-25T03:52:27.772Z,99.90
2018-09-25T03:55:01.596Z,99.90
2018-09-25T03:57:35.518Z,99.90
2018-09-25T04:00:09.317Z,99.90
2018-09-25T04:02:43.227Z,99.90
2018-09-25T04:05:17.209Z,99.90
2018-09-25T04:07:51.194Z,99.90
2018-09-25T04:10:25.002Z,99.90
2018-09-25T04:12:58.969Z,99.90
2018-09-25T04:15:32.944Z,99.90
2018-09-25T04:18:07.076Z,99.90
2018-09-25T04:20:41.004Z,99.90
2018-09-25T04:23:14.845Z,99.90
2018-09-25T04:25:48.735Z,99.90
2018-09-25T04:28:22.590Z,99.90
2018-09-25T04:30:56.795Z,99.90
2018-09-25T04:33:31.040Z,99.90
2018-09-25T04:36:05.008Z,99.90
2018-09-25T04:38:39.107Z,99.90
2018-09-25T04:41:13.179Z,99.90
2018-09-25T04:43:47.183Z,99.90
2018-09-25T04:46:21.340Z,99.90
2018-09-25T04:48:55.565Z,99.90
2018-09-25T04:51:29.474Z,99.90
2018-09-25T04:54:03.511Z,99.90
2018-09-25T04:56:37.597Z,99.90
2018-09-25T04:59:12.285Z,99.90
2018-09-25T05:01:46.254Z,99.90
2018-09-25T05:04:20.695Z,99.90
2018-09-25T05:06:54.781Z,99.90
2018-09-25T05:09:28.680Z,99.90
2018-09-25T05:12:02.622Z,99.90
2018-09-25T05:14:37.131Z,99.90
2018-09-25T05:17:11.077Z,99.90
2018-09-25T05:19:45.469Z,99.90
2018-09-25T05:22:19.721Z,99.90
2018-09-25T05:24:53.630Z,99.90
2018-09-25T05:27:27.795Z,99.90
2018-09-25T05:30:01.828Z,99.90
2018-09-25T05:32:35.676Z,99.90
2018-09-25T05:35:09.536Z,99.90
2018-09-25T05:37:44.006Z,99.90
2018-09-25T05:40:18.097Z,99.90
2018-09-25T05:42:51.943Z,99.90
2018-09-25T05:45:26.122Z,99.90
2018-09-25T05:48:00.251Z,99.90
2018-09-25T05:50:34.305Z,99.90
2018-09-25T05:53:08.124Z,99.90
2018-09-25T05:55:42.117Z,99.90
2018-09-25T05:58:16.006Z,99.90
2018-09-25T06:00:50.133Z,99.90
2018-09-25T06:03:23.968Z,99.90
2018-09-25T06:05:57.820Z,99.90
2018-09-25T06:08:31.747Z,99.90
2018-09-25T06:11:05.608Z,99.90
2018-09-25T06:13:39.518Z,99.90
2018-09-25T06:16:13.465Z,99.90
2018-09-25T14:50:09.613Z,76.10
2018-09-25T14:52:43.563Z,72.40
2018-09-25T14:55:17.292Z,72.10
2018-09-25T14:57:51.060Z,77.90
2018-09-25T15:00:25.029Z,71.50
2018-09-25T15:02:58.880Z,75.20
2018-09-25T15:05:32.540Z,87.30
2018-09-25T15:08:06.476Z,80.70
2018-09-25T15:10:40.517Z,85.70
2018-09-25T15:13:14.464Z,84.70
2018-09-25T15:15:48.411Z,81.70
2018-09-25T15:18:22.035Z,83.40
2018-09-25T15:20:55.753Z,78.60
2018-09-25T15:23:29.657Z,79.00
2018-09-25T15:26:03.601Z,82.90
2018-09-25T15:28:37.533Z,82.00
2018-09-25T15:31:12.078Z,85.00
2018-09-25T15:33:45.988Z,88.80
2018-09-25T15:36:19.757Z,91.50
2018-09-25T15:38:53.542Z,92.80
2018-09-25T15:41:27.326Z,94.10
2018-09-25T15:44:01.220Z,94.60
2018-09-25T15:46:34.962Z,95.10
2018-09-25T15:49:08.901Z,95.90
2018-09-25T15:51:42.874Z,96.70
2018-09-25T15:54:16.768Z,97.80
2018-09-25T15:56:50.648Z,98.90
2018-09-25T15:59:24.307Z,99.90
2018-09-25T16:01:58.206Z,99.90
2018-09-25T16:04:32.090Z,99.90
2018-09-25T16:07:05.963Z,99.90
2018-09-25T16:09:39.896Z,99.90
2018-09-25T16:12:13.913Z,99.90
2018-09-25T16:14:47.698Z,99.90
2018-09-25T16:17:21.492Z,99.90
2018-09-25T16:31:26.073Z,98.10
2018-09-25T16:34:00.953Z,97.40
2018-09-25T16:36:34.773Z,96.50
2018-09-25T16:39:08.528Z,99.90
2018-09-25T16:41:42.449Z,99.90
2018-09-25T16:44:16.211Z,99.90
2018-09-25T16:46:50.011Z,99.90
2018-09-25T16:49:23.917Z,99.90
2018-09-25T16:51:58.094Z,99.90
2018-09-25T16:54:31.943Z,99.90
2018-09-25T16:57:05.730Z,99.90
2018-09-25T16:59:39.518Z,99.90
2018-09-25T17:02:13.587Z,99.90
2018-09-25T17:04:47.490Z,99.90
2018-09-25T17:07:21.253Z,99.90
2018-09-25T17:09:55.217Z,99.90
2018-09-25T17:12:29.584Z,99.90
2018-09-25T17:15:03.319Z,99.90
2018-09-25T17:17:37.148Z,99.90
2018-09-25T17:20:11.185Z,99.90
2018-09-25T17:22:44.954Z,99.90
2018-09-25T17:25:18.729Z,99.90
2018-09-25T17:27:52.639Z,99.90
2018-09-25T17:30:26.478Z,99.90
2018-09-25T17:33:00.363Z,99.90
2018-09-25T17:35:34.153Z,99.90
2018-09-25T17:38:07.934Z,99.90
2018-09-25T17:40:41.879Z,99.90
2018-09-25T17:43:15.836Z,99.90
2018-09-25T18:22:57.428Z,99.90
2018-09-25T18:25:31.331Z,99.90
2018-09-25T18:28:05.342Z,99.90
2018-09-25T18:30:39.041Z,99.90
2018-09-25T18:33:12.916Z,99.90
2018-09-25T18:35:47.029Z,99.90
2018-09-25T18:38:20.867Z,99.90
2018-09-25T18:40:54.728Z,99.90
2018-09-25T18:43:28.542Z,99.90
2018-09-25T18:46:02.442Z,99.90
2018-09-25T18:48:36.342Z,99.90
2018-09-25T18:51:10.269Z,99.90
2018-09-25T18:53:44.029Z,99.90
2018-09-25T18:56:17.928Z,99.90
2018-09-25T18:58:51.749Z,99.90
2018-09-25T19:01:25.711Z,99.90
2018-09-25T19:03:59.619Z,99.90
2018-09-25T19:06:33.629Z,99.90
2018-09-25T19:09:07.457Z,99.90
2018-09-25T19:11:41.332Z,99.90
2018-09-25T19:14:15.247Z,99.90
2018-09-25T19:16:49.222Z,99.90
2018-09-25T19:19:23.086Z,99.90
2018-09-25T19:21:56.942Z,99.90
2018-09-25T19:24:31.074Z,99.90
2018-09-25T19:27:05.013Z,99.90
2018-09-25T19:29:38.871Z,99.90
2018-09-25T19:32:12.864Z,99.90
2018-09-25T19:39:57.896Z,99.90
2018-09-25T19:42:31.660Z,99.90
2018-09-25T19:45:05.446Z,99.90
2018-09-25T19:47:39.271Z,99.90
2018-09-25T19:50:13.193Z,99.90
2018-09-25T19:52:47.033Z,99.90
2018-09-25T19:55:20.919Z,99.90
2018-09-25T19:57:54.824Z,99.90
2018-09-25T20:00:28.773Z,99.90
2018-09-25T20:03:02.630Z,99.90
2018-09-25T20:05:36.626Z,99.90
2018-09-25T20:08:10.431Z,99.90
2018-09-25T20:10:44.309Z,99.90
2018-09-25T20:13:18.051Z,99.90
2018-09-25T20:15:52.028Z,99.90
2018-09-25T20:18:26.179Z,99.90
2018-09-25T20:21:00.139Z,99.90
2018-09-25T20:23:34.174Z,99.90
2018-09-25T20:26:08.094Z,99.90
2018-09-25T20:28:42.666Z,99.90
2018-09-25T20:31:16.472Z,99.90
2018-09-25T20:33:50.577Z,99.90
2018-09-25T20:36:24.313Z,99.90
2018-09-25T20:38:58.222Z,99.90
2018-09-25T20:41:32.079Z,99.90
2018-09-25T20:44:06.710Z,99.90
2018-09-25T20:46:40.515Z,99.90
2018-09-25T20:49:14.641Z,99.90
2018-09-25T20:51:48.352Z,99.90
2018-09-25T20:54:22.189Z,99.90
2018-09-25T20:56:55.979Z,99.90
2018-09-25T20:59:30.066Z,99.90
2018-09-25T21:02:04.094Z,99.90
2018-09-25T21:04:37.832Z,99.90
2018-09-25T21:07:12.990Z,99.90
2018-09-25T21:09:54.704Z,99.90
2018-09-25T21:12:29.970Z,99.90
2018-09-25T21:15:03.910Z,99.90
2018-09-25T21:17:37.824Z,99.90
2018-09-25T21:20:11.748Z,99.90
2018-09-25T21:22:45.628Z,99.90
2018-09-25T21:25:19.326Z,99.90
2018-09-25T21:27:53.104Z,99.90
2018-09-25T21:30:26.884Z,99.90
2018-09-25T21:33:00.574Z,99.90
2018-09-25T21:35:34.457Z,99.90
2018-09-25T21:38:08.696Z,99.90
2018-09-25T21:40:42.850Z,99.90
2018-09-25T21:43:16.718Z,99.90
2018-09-25T21:45:50.382Z,99.90
2018-09-25T21:48:24.221Z,99.90
2018-09-25T21:50:58.126Z,99.90
2018-09-25T21:53:33.307Z,99.90
2018-09-25T21:56:06.989Z,99.90
2018-09-25T21:58:40.887Z,99.90
2018-09-25T22:01:14.979Z,99.90
2018-09-25T22:03:48.824Z,99.90
2018-09-25T22:06:22.970Z,99.90
2018-09-25T22:08:57.120Z,99.90
2018-09-25T22:11:30.966Z,99.90
2018-09-25T22:14:04.721Z,99.90
2018-09-25T22:16:38.466Z,99.90
2018-09-25T22:19:12.541Z,99.90
2018-09-25T22:21:46.591Z,99.90
2018-09-25T22:24:20.349Z,99.90
2018-09-25T22:26:54.273Z,99.90
2018-09-25T22:29:28.103Z,99.90
2018-09-25T22:32:01.987Z,99.90
2018-09-25T22:34:35.774Z,99.90
2018-09-25T22:37:09.637Z,99.90
2018-09-25T22:39:43.404Z,99.90
2018-09-25T22:42:17.285Z,99.90
2018-09-25T22:44:51.181Z,99.90
2018-09-25T22:47:25.015Z,99.90
2018-09-25T22:49:58.893Z,99.90
2018-09-25T22:52:32.695Z,99.90
2018-09-25T22:55:06.611Z,99.90
2018-09-25T22:57:40.519Z,99.90
2018-09-25T23:00:14.497Z,99.90
2018-09-25T23:02:49.093Z,99.90
2018-09-25T23:05:23.015Z,99.90
2018-09-25T23:07:56.851Z,99.90
2018-09-25T23:10:30.707Z,99.90
2018-09-25T23:13:05.539Z,99.90
2018-09-25T23:15:39.940Z,99.90
2018-09-25T23:18:13.672Z,99.90
2018-09-25T23:20:47.590Z,99.90
2018-09-25T23:23:21.766Z,99.90
2018-09-25T23:25:55.548Z,99.90
2018-09-25T23:28:29.372Z,99.90
2018-09-25T23:31:03.516Z,99.90
2018-09-25T23:33:38.208Z,99.90
2018-09-25T23:36:12.168Z,99.90
2018-09-25T23:38:46.038Z,99.90
2018-09-25T23:41:20.480Z,99.90
2018-09-25T23:43:54.354Z,99.90
2018-09-25T23:46:28.350Z,99.90
2018-09-25T23:49:03.034Z,99.90
2018-09-25T23:51:37.011Z,99.90
2018-09-25T23:56:17.822Z,99.90
2018-09-25T23:58:49.444Z,99.90
